LTBI Airport Information

Runway Information
Runway 09 Length 10006 ft width 150 ft
Elevation 2581 ft Threshold 0 ft Heading 90
Runway 27 Length 10006 ft Width 150 ft
Elevation 2570 ft Threshold 0 ft Heading 270
Airport Frequencies
Type APP Name APP Frequency 122.1 MHZ
Type ATIS Name ATIS Frequency 122.425 MHZ
Type GND Name GND Frequency 121.95 MHZ
Type TWR Name TWR Frequency 122.1 MHZ
Airport Navaids
Type TACAN Name Eskisehir Frequency 114400 KHZ
Airport Weather Information & NOTAM
ADDS - METARS form results

(2310 UTC 20 January 2019)
Data provider http://aviationweather.gov/metar/data/
 
Forecast for: LTBI (ESKISEHIR (TUR-A, TR)
Text: TAF LTBI 202240Z 2100/2109 VRB02KT 9999 SCT040 BKN100
Forecast period: 0000 to 0900 UTC 21 January 2019
Forecast type: FROM: standard forecast or significant change
Winds: variable direction winds at 2 MPH (2 knots; 1.0 m/s)
Visibility: 6 or more miles 10+ km)
Ceiling: 10000 feet AGL
Clouds: scattered clouds at 4000 feet AGL
broken clouds at 10000 feet AGL
Weather: no significant weather forecast for this period
Text: TEMPO 2104/2107 -RASN
Forecast period: 0400 to 0700 UTC 21 January 2019
Forecast type: TEMPORARY: The following changes expected for less than half the time period
Visibility: missing
Ceiling: unknown
Clouds: missing
Weather: -RA -SN  (light rain, light snow)